sensor_id;sensor_type;location;lat;lon;timestamp;P1;durP1;ratioP1;P2;durP2;ratioP2
44276;SDS011;29973;43.742;1.236;2023-02-22T00:00:17;30.73;;;19.38;;
44276;SDS011;29973;43.742;1.236;2023-02-22T00:02:50;39.88;;;21.60;;
44276;SDS011;29973;43.742;1.236;2023-02-22T00:05:24;32.10;;;20.58;;
44276;SDS011;29973;43.742;1.236;2023-02-22T00:07:51;36.70;;;20.50;;
44276;SDS011;29973;43.742;1.236;2023-02-22T00:10:21;38.50;;;22.02;;
44276;SDS011;29973;43.742;1.236;2023-02-22T00:12:49;34.80;;;20.63;;
44276;SDS011;29973;43.742;1.236;2023-02-22T00:15:17;31.70;;;19.67;;
44276;SDS011;29973;43.742;1.236;2023-02-22T00:17:45;44.08;;;21.08;;
44276;SDS011;29973;43.742;1.236;2023-02-22T00:20:15;32.40;;;20.48;;
44276;SDS011;29973;43.742;1.236;2023-02-22T00:22:45;32.55;;;20.35;;
44276;SDS011;29973;43.742;1.236;2023-02-22T00:25:13;32.28;;;19.67;;
44276;SDS011;29973;43.742;1.236;2023-02-22T00:27:43;32.07;;;20.03;;
44276;SDS011;29973;43.742;1.236;2023-02-22T00:30:15;31.40;;;19.92;;
44276;SDS011;29973;43.742;1.236;2023-02-22T00:32:47;27.08;;;16.80;;
44276;SDS011;29973;43.742;1.236;2023-02-22T00:35:14;32.15;;;19.85;;
44276;SDS011;29973;43.742;1.236;2023-02-22T00:37:42;28.17;;;18.80;;
44276;SDS011;29973;43.742;1.236;2023-02-22T00:40:11;32.97;;;19.65;;
44276;SDS011;29973;43.742;1.236;2023-02-22T00:42:41;28.70;;;19.02;;
44276;SDS011;29973;43.742;1.236;2023-02-22T00:45:07;28.70;;;19.05;;
44276;SDS011;29973;43.742;1.236;2023-02-22T00:47:33;35.28;;;19.52;;
44276;SDS011;29973;43.742;1.236;2023-02-22T00:49:59;30.35;;;18.95;;
44276;SDS011;29973;43.742;1.236;2023-02-22T00:52:25;37.78;;;21.08;;
44276;SDS011;29973;43.742;1.236;2023-02-22T00:54:53;33.47;;;19.85;;
44276;SDS011;29973;43.742;1.236;2023-02-22T00:57:20;36.33;;;20.73;;
44276;SDS011;29973;43.742;1.236;2023-02-22T00:59:46;35.22;;;20.27;;
44276;SDS011;29973;43.742;1.236;2023-02-22T01:02:12;34.95;;;20.40;;
44276;SDS011;29973;43.742;1.236;2023-02-22T01:04:38;33.72;;;20.38;;
44276;SDS011;29973;43.742;1.236;2023-02-22T01:07:07;31.00;;;19.20;;
44276;SDS011;29973;43.742;1.236;2023-02-22T01:09:33;33.90;;;20.33;;
44276;SDS011;29973;43.742;1.236;2023-02-22T01:11:59;36.00;;;20.52;;
44276;SDS011;29973;43.742;1.236;2023-02-22T01:14:26;32.13;;;20.92;;
44276;SDS011;29973;43.742;1.236;2023-02-22T01:16:53;34.95;;;21.30;;
44276;SDS011;29973;43.742;1.236;2023-02-22T01:19:20;32.55;;;20.58;;
44276;SDS011;29973;43.742;1.236;2023-02-22T01:21:46;33.58;;;19.92;;
44276;SDS011;29973;43.742;1.236;2023-02-22T01:24:13;34.05;;;20.33;;
44276;SDS011;29973;43.742;1.236;2023-02-22T01:26:47;38.13;;;21.30;;
44276;SDS011;29973;43.742;1.236;2023-02-22T01:29:17;32.20;;;19.55;;
44276;SDS011;29973;43.742;1.236;2023-02-22T01:31:49;34.55;;;20.83;;
44276;SDS011;29973;43.742;1.236;2023-02-22T01:34:17;35.17;;;21.70;;
44276;SDS011;29973;43.742;1.236;2023-02-22T01:36:43;35.03;;;21.00;;
44276;SDS011;29973;43.742;1.236;2023-02-22T01:39:08;35.13;;;20.63;;
44276;SDS011;29973;43.742;1.236;2023-02-22T01:41:37;37.67;;;21.77;;
44276;SDS011;29973;43.742;1.236;2023-02-22T01:44:18;40.58;;;21.35;;
44276;SDS011;29973;43.742;1.236;2023-02-22T01:46:49;39.30;;;21.15;;
44276;SDS011;29973;43.742;1.236;2023-02-22T01:49:15;45.47;;;22.77;;
44276;SDS011;29973;43.742;1.236;2023-02-22T01:51:45;45.78;;;23.90;;
44276;SDS011;29973;43.742;1.236;2023-02-22T01:57:25;98.07;;;50.40;;
44276;SDS011;29973;43.742;1.236;2023-02-22T02:00:04;61.03;;;32.63;;
44276;SDS011;29973;43.742;1.236;2023-02-22T02:02:36;48.72;;;25.90;;
44276;SDS011;29973;43.742;1.236;2023-02-22T02:05:05;65.57;;;36.28;;
44276;SDS011;29973;43.742;1.236;2023-02-22T02:07:35;70.65;;;37.22;;
44276;SDS011;29973;43.742;1.236;2023-02-22T02:10:04;63.58;;;35.08;;
44276;SDS011;29973;43.742;1.236;2023-02-22T02:12:38;58.78;;;34.00;;
44276;SDS011;29973;43.742;1.236;2023-02-22T02:15:28;68.65;;;37.22;;
44276;SDS011;29973;43.742;1.236;2023-02-22T02:18:00;53.72;;;32.67;;
44276;SDS011;29973;43.742;1.236;2023-02-22T02:26:25;51.28;;;27.35;;
44276;SDS011;29973;43.742;1.236;2023-02-22T02:29:22;54.17;;;29.00;;
44276;SDS011;29973;43.742;1.236;2023-02-22T02:35:13;48.95;;;28.60;;
44276;SDS011;29973;43.742;1.236;2023-02-22T02:41:26;50.85;;;25.95;;
44276;SDS011;29973;43.742;1.236;2023-02-22T02:43:52;48.00;;;24.27;;
44276;SDS011;29973;43.742;1.236;2023-02-22T02:49:09;53.67;;;25.42;;
44276;SDS011;29973;43.742;1.236;2023-02-22T02:51:40;66.47;;;27.15;;
44276;SDS011;29973;43.742;1.236;2023-02-22T02:54:12;60.35;;;27.58;;
44276;SDS011;29973;43.742;1.236;2023-02-22T02:56:40;58.88;;;28.13;;
44276;SDS011;29973;43.742;1.236;2023-02-22T03:02:06;68.60;;;28.65;;
44276;SDS011;29973;43.742;1.236;2023-02-22T03:10:34;64.85;;;30.58;;
44276;SDS011;29973;43.742;1.236;2023-02-22T03:24:46;73.88;;;32.22;;
44276;SDS011;29973;43.742;1.236;2023-02-22T03:30:15;71.38;;;30.52;;
44276;SDS011;29973;43.742;1.236;2023-02-22T03:32:45;64.20;;;30.65;;
44276;SDS011;29973;43.742;1.236;2023-02-22T03:37:49;68.80;;;29.67;;
44276;SDS011;29973;43.742;1.236;2023-02-22T03:40:26;60.78;;;27.95;;
44276;SDS011;29973;43.742;1.236;2023-02-22T03:42:57;55.40;;;28.23;;
44276;SDS011;29973;43.742;1.236;2023-02-22T03:45:31;45.63;;;23.88;;
44276;SDS011;29973;43.742;1.236;2023-02-22T03:48:02;51.90;;;25.23;;
44276;SDS011;29973;43.742;1.236;2023-02-22T03:50:35;49.83;;;24.90;;
44276;SDS011;29973;43.742;1.236;2023-02-22T03:53:02;51.47;;;26.83;;
44276;SDS011;29973;43.742;1.236;2023-02-22T03:55:29;55.50;;;26.33;;
44276;SDS011;29973;43.742;1.236;2023-02-22T03:57:59;57.22;;;26.58;;
44276;SDS011;29973;43.742;1.236;2023-02-22T04:00:29;57.75;;;27.85;;
44276;SDS011;29973;43.742;1.236;2023-02-22T04:02:58;70.15;;;28.33;;
44276;SDS011;29973;43.742;1.236;2023-02-22T04:05:24;75.95;;;30.50;;
44276;SDS011;29973;43.742;1.236;2023-02-22T04:07:52;72.60;;;32.00;;
44276;SDS011;29973;43.742;1.236;2023-02-22T04:10:18;84.72;;;33.10;;
44276;SDS011;29973;43.742;1.236;2023-02-22T04:12:44;76.10;;;31.15;;
44276;SDS011;29973;43.742;1.236;2023-02-22T04:15:11;68.97;;;30.98;;
44276;SDS011;29973;43.742;1.236;2023-02-22T04:17:39;64.43;;;29.85;;
44276;SDS011;29973;43.742;1.236;2023-02-22T04:20:05;83.43;;;31.33;;
44276;SDS011;29973;43.742;1.236;2023-02-22T04:22:32;70.47;;;29.38;;
44276;SDS011;29973;43.742;1.236;2023-02-22T04:24:58;60.38;;;29.52;;
44276;SDS011;29973;43.742;1.236;2023-02-22T04:27:23;61.85;;;26.85;;
44276;SDS011;29973;43.742;1.236;2023-02-22T04:29:49;68.40;;;28.83;;
44276;SDS011;29973;43.742;1.236;2023-02-22T04:32:15;62.40;;;28.33;;
44276;SDS011;29973;43.742;1.236;2023-02-22T04:34:41;63.22;;;27.08;;
44276;SDS011;29973;43.742;1.236;2023-02-22T04:37:07;55.47;;;27.67;;
44276;SDS011;29973;43.742;1.236;2023-02-22T04:39:36;55.22;;;26.15;;
44276;SDS011;29973;43.742;1.236;2023-02-22T04:42:02;59.15;;;25.27;;
44276;SDS011;29973;43.742;1.236;2023-02-22T04:44:29;56.83;;;24.80;;
44276;SDS011;29973;43.742;1.236;2023-02-22T04:46:55;58.03;;;25.00;;
44276;SDS011;29973;43.742;1.236;2023-02-22T04:49:21;52.25;;;23.02;;
44276;SDS011;29973;43.742;1.236;2023-02-22T04:51:47;52.85;;;23.30;;
44276;SDS011;29973;43.742;1.236;2023-02-22T04:54:14;50.47;;;23.98;;
44276;SDS011;29973;43.742;1.236;2023-02-22T04:56:41;39.47;;;22.77;;
44276;SDS011;29973;43.742;1.236;2023-02-22T04:59:08;43.22;;;21.40;;
44276;SDS011;29973;43.742;1.236;2023-02-22T05:01:35;45.50;;;22.13;;
44276;SDS011;29973;43.742;1.236;2023-02-22T05:04:07;41.45;;;20.38;;
44276;SDS011;29973;43.742;1.236;2023-02-22T05:06:33;49.03;;;20.80;;
44276;SDS011;29973;43.742;1.236;2023-02-22T05:09:00;51.53;;;21.65;;
44276;SDS011;29973;43.742;1.236;2023-02-22T05:11:26;51.47;;;22.15;;
44276;SDS011;29973;43.742;1.236;2023-02-22T05:13:53;44.30;;;22.23;;
44276;SDS011;29973;43.742;1.236;2023-02-22T05:16:18;43.33;;;20.80;;
44276;SDS011;29973;43.742;1.236;2023-02-22T05:18:44;45.60;;;19.95;;
44276;SDS011;29973;43.742;1.236;2023-02-22T05:21:10;43.58;;;22.35;;
44276;SDS011;29973;43.742;1.236;2023-02-22T05:23:37;40.80;;;21.42;;
44276;SDS011;29973;43.742;1.236;2023-02-22T05:26:05;56.22;;;23.13;;
44276;SDS011;29973;43.742;1.236;2023-02-22T05:28:31;43.55;;;21.65;;
44276;SDS011;29973;43.742;1.236;2023-02-22T05:30:57;41.70;;;21.25;;
44276;SDS011;29973;43.742;1.236;2023-02-22T05:33:23;47.28;;;22.08;;
44276;SDS011;29973;43.742;1.236;2023-02-22T05:35:48;38.03;;;20.33;;
44276;SDS011;29973;43.742;1.236;2023-02-22T05:38:15;47.85;;;22.27;;
44276;SDS011;29973;43.742;1.236;2023-02-22T05:40:42;65.95;;;26.60;;
44276;SDS011;29973;43.742;1.236;2023-02-22T05:43:08;57.70;;;26.52;;
44276;SDS011;29973;43.742;1.236;2023-02-22T05:45:34;52.13;;;22.83;;
44276;SDS011;29973;43.742;1.236;2023-02-22T05:48:00;48.75;;;23.83;;
44276;SDS011;29973;43.742;1.236;2023-02-22T05:50:30;47.30;;;24.35;;
44276;SDS011;29973;43.742;1.236;2023-02-22T05:52:57;42.55;;;24.10;;
44276;SDS011;29973;43.742;1.236;2023-02-22T05:55:31;56.95;;;27.65;;
44276;SDS011;29973;43.742;1.236;2023-02-22T05:58:00;48.67;;;22.33;;
44276;SDS011;29973;43.742;1.236;2023-02-22T06:00:30;47.17;;;22.48;;
44276;SDS011;29973;43.742;1.236;2023-02-22T06:03:03;29.42;;;17.67;;
44276;SDS011;29973;43.742;1.236;2023-02-22T06:05:32;33.75;;;20.08;;
44276;SDS011;29973;43.742;1.236;2023-02-22T06:07:58;44.28;;;20.95;;
44276;SDS011;29973;43.742;1.236;2023-02-22T06:10:25;48.45;;;20.70;;
44276;SDS011;29973;43.742;1.236;2023-02-22T06:12:52;53.42;;;24.52;;
44276;SDS011;29973;43.742;1.236;2023-02-22T06:15:19;53.25;;;25.00;;
44276;SDS011;29973;43.742;1.236;2023-02-22T06:17:46;53.72;;;26.05;;
44276;SDS011;29973;43.742;1.236;2023-02-22T06:20:14;63.42;;;29.23;;
44276;SDS011;29973;43.742;1.236;2023-02-22T06:22:42;50.03;;;24.85;;
44276;SDS011;29973;43.742;1.236;2023-02-22T06:25:12;59.65;;;25.00;;
44276;SDS011;29973;43.742;1.236;2023-02-22T06:27:40;66.80;;;26.52;;
44276;SDS011;29973;43.742;1.236;2023-02-22T06:30:06;52.92;;;26.38;;
44276;SDS011;29973;43.742;1.236;2023-02-22T06:32:33;50.28;;;22.85;;
44276;SDS011;29973;43.742;1.236;2023-02-22T06:35:00;51.30;;;21.58;;
44276;SDS011;29973;43.742;1.236;2023-02-22T06:37:26;38.08;;;19.50;;
44276;SDS011;29973;43.742;1.236;2023-02-22T06:39:55;51.75;;;20.95;;
44276;SDS011;29973;43.742;1.236;2023-02-22T06:42:21;46.13;;;21.00;;
44276;SDS011;29973;43.742;1.236;2023-02-22T06:44:48;37.05;;;20.10;;
44276;SDS011;29973;43.742;1.236;2023-02-22T06:47:13;40.28;;;20.15;;
44276;SDS011;29973;43.742;1.236;2023-02-22T06:49:39;40.85;;;20.30;;
44276;SDS011;29973;43.742;1.236;2023-02-22T06:52:06;37.35;;;20.38;;
44276;SDS011;29973;43.742;1.236;2023-02-22T06:54:33;45.83;;;22.67;;
44276;SDS011;29973;43.742;1.236;2023-02-22T06:56:59;39.90;;;21.85;;
44276;SDS011;29973;43.742;1.236;2023-02-22T06:59:25;56.08;;;22.73;;
44276;SDS011;29973;43.742;1.236;2023-02-22T07:01:52;47.63;;;22.30;;
44276;SDS011;29973;43.742;1.236;2023-02-22T07:04:18;43.25;;;19.60;;
44276;SDS011;29973;43.742;1.236;2023-02-22T07:06:54;44.08;;;20.48;;
44276;SDS011;29973;43.742;1.236;2023-02-22T07:09:21;59.45;;;28.15;;
44276;SDS011;29973;43.742;1.236;2023-02-22T07:11:46;51.53;;;25.13;;
44276;SDS011;29973;43.742;1.236;2023-02-22T07:14:14;50.28;;;24.33;;
44276;SDS011;29973;43.742;1.236;2023-02-22T07:16:41;60.42;;;25.33;;
44276;SDS011;29973;43.742;1.236;2023-02-22T07:19:07;56.00;;;25.88;;
44276;SDS011;29973;43.742;1.236;2023-02-22T07:21:33;62.38;;;31.45;;
44276;SDS011;29973;43.742;1.236;2023-02-22T07:23:59;62.83;;;30.73;;
44276;SDS011;29973;43.742;1.236;2023-02-22T07:26:25;55.03;;;28.23;;
44276;SDS011;29973;43.742;1.236;2023-02-22T07:28:51;56.88;;;27.40;;
44276;SDS011;29973;43.742;1.236;2023-02-22T07:31:17;43.42;;;23.02;;
44276;SDS011;29973;43.742;1.236;2023-02-22T07:33:47;41.35;;;22.25;;
44276;SDS011;29973;43.742;1.236;2023-02-22T07:36:13;47.38;;;22.30;;
44276;SDS011;29973;43.742;1.236;2023-02-22T07:38:42;42.45;;;21.92;;
44276;SDS011;29973;43.742;1.236;2023-02-22T07:41:09;51.25;;;24.60;;
44276;SDS011;29973;43.742;1.236;2023-02-22T07:43:35;43.35;;;21.90;;
44276;SDS011;29973;43.742;1.236;2023-02-22T07:46:01;47.63;;;22.27;;
44276;SDS011;29973;43.742;1.236;2023-02-22T07:48:27;43.58;;;22.17;;
44276;SDS011;29973;43.742;1.236;2023-02-22T07:50:55;45.50;;;21.52;;
44276;SDS011;29973;43.742;1.236;2023-02-22T07:53:25;39.95;;;19.23;;
44276;SDS011;29973;43.742;1.236;2023-02-22T07:55:57;42.85;;;20.50;;
44276;SDS011;29973;43.742;1.236;2023-02-22T07:58:25;35.90;;;21.20;;
44276;SDS011;29973;43.742;1.236;2023-02-22T08:00:53;46.67;;;20.83;;
44276;SDS011;29973;43.742;1.236;2023-02-22T08:03:20;68.93;;;27.73;;
44276;SDS011;29973;43.742;1.236;2023-02-22T08:05:49;53.88;;;26.15;;
44276;SDS011;29973;43.742;1.236;2023-02-22T08:08:16;52.85;;;23.13;;
44276;SDS011;29973;43.742;1.236;2023-02-22T08:10:42;44.25;;;22.70;;
44276;SDS011;29973;43.742;1.236;2023-02-22T08:13:08;38.80;;;19.67;;
44276;SDS011;29973;43.742;1.236;2023-02-22T08:15:36;59.05;;;25.98;;
44276;SDS011;29973;43.742;1.236;2023-02-22T08:18:07;59.55;;;24.23;;
44276;SDS011;29973;43.742;1.236;2023-02-22T08:20:37;54.17;;;23.55;;
44276;SDS011;29973;43.742;1.236;2023-02-22T08:23:13;62.03;;;25.17;;
44276;SDS011;29973;43.742;1.236;2023-02-22T08:25:43;73.28;;;33.55;;
44276;SDS011;29973;43.742;1.236;2023-02-22T08:28:10;77.88;;;32.03;;
44276;SDS011;29973;43.742;1.236;2023-02-22T08:30:38;75.07;;;26.00;;
44276;SDS011;29973;43.742;1.236;2023-02-22T08:33:04;70.20;;;27.63;;
44276;SDS011;29973;43.742;1.236;2023-02-22T08:35:30;70.32;;;24.58;;
44276;SDS011;29973;43.742;1.236;2023-02-22T08:38:00;67.82;;;26.75;;
44276;SDS011;29973;43.742;1.236;2023-02-22T08:40:29;70.72;;;27.70;;
44276;SDS011;29973;43.742;1.236;2023-02-22T08:42:56;78.93;;;28.00;;
44276;SDS011;29973;43.742;1.236;2023-02-22T08:45:23;81.80;;;29.52;;
44276;SDS011;29973;43.742;1.236;2023-02-22T08:47:49;77.72;;;28.80;;
44276;SDS011;29973;43.742;1.236;2023-02-22T08:50:22;75.75;;;30.15;;
44276;SDS011;29973;43.742;1.236;2023-02-22T08:52:54;81.90;;;28.38;;
44276;SDS011;29973;43.742;1.236;2023-02-22T08:55:23;81.93;;;26.90;;
44276;SDS011;29973;43.742;1.236;2023-02-22T08:57:56;84.78;;;27.60;;
44276;SDS011;29973;43.742;1.236;2023-02-22T09:00:22;77.53;;;28.73;;
44276;SDS011;29973;43.742;1.236;2023-02-22T09:02:53;75.28;;;28.73;;
44276;SDS011;29973;43.742;1.236;2023-02-22T09:05:20;78.00;;;28.45;;
44276;SDS011;29973;43.742;1.236;2023-02-22T09:07:49;72.07;;;28.17;;
44276;SDS011;29973;43.742;1.236;2023-02-22T09:10:18;62.63;;;25.80;;
44276;SDS011;29973;43.742;1.236;2023-02-22T09:12:49;73.65;;;25.38;;
44276;SDS011;29973;43.742;1.236;2023-02-22T09:15:16;72.57;;;28.23;;
44276;SDS011;29973;43.742;1.236;2023-02-22T09:17:42;78.32;;;27.98;;
44276;SDS011;29973;43.742;1.236;2023-02-22T09:20:09;67.63;;;28.88;;
44276;SDS011;29973;43.742;1.236;2023-02-22T09:22:38;82.50;;;27.33;;
44276;SDS011;29973;43.742;1.236;2023-02-22T09:25:04;83.10;;;28.48;;
44276;SDS011;29973;43.742;1.236;2023-02-22T09:27:31;75.35;;;29.58;;
44276;SDS011;29973;43.742;1.236;2023-02-22T09:29:57;75.95;;;28.58;;
44276;SDS011;29973;43.742;1.236;2023-02-22T09:32:23;83.55;;;30.08;;
44276;SDS011;29973;43.742;1.236;2023-02-22T09:34:52;90.22;;;30.52;;
44276;SDS011;29973;43.742;1.236;2023-02-22T09:37:19;72.15;;;29.60;;
44276;SDS011;29973;43.742;1.236;2023-02-22T09:39:45;66.40;;;27.38;;
44276;SDS011;29973;43.742;1.236;2023-02-22T09:42:12;76.72;;;27.08;;
44276;SDS011;29973;43.742;1.236;2023-02-22T09:45:09;55.60;;;24.45;;
44276;SDS011;29973;43.742;1.236;2023-02-22T09:47:46;66.13;;;26.10;;
44276;SDS011;29973;43.742;1.236;2023-02-22T09:50:19;50.50;;;22.90;;
44276;SDS011;29973;43.742;1.236;2023-02-22T09:52:55;57.17;;;22.17;;
44276;SDS011;29973;43.742;1.236;2023-02-22T09:58:36;53.33;;;20.15;;
44276;SDS011;29973;43.742;1.236;2023-02-22T10:03:49;36.38;;;18.33;;
44276;SDS011;29973;43.742;1.236;2023-02-22T10:06:25;41.42;;;19.17;;
44276;SDS011;29973;43.742;1.236;2023-02-22T10:08:51;36.83;;;16.30;;
44276;SDS011;29973;43.742;1.236;2023-02-22T10:27:41;40.78;;;16.90;;
44276;SDS011;29973;43.742;1.236;2023-02-22T10:30:22;37.00;;;15.73;;
44276;SDS011;29973;43.742;1.236;2023-02-22T10:35:37;41.30;;;15.32;;
44276;SDS011;29973;43.742;1.236;2023-02-22T10:40:49;31.90;;;13.63;;
44276;SDS011;29973;43.742;1.236;2023-02-22T10:43:18;25.55;;;13.32;;
44276;SDS011;29973;43.742;1.236;2023-02-22T10:45:47;35.75;;;15.10;;
44276;SDS011;29973;43.742;1.236;2023-02-22T10:48:20;33.67;;;15.63;;
44276;SDS011;29973;43.742;1.236;2023-02-22T10:50:48;28.08;;;13.15;;
44276;SDS011;29973;43.742;1.236;2023-02-22T10:53:19;29.38;;;16.08;;
44276;SDS011;29973;43.742;1.236;2023-02-22T10:58:45;38.72;;;14.75;;
44276;SDS011;29973;43.742;1.236;2023-02-22T11:01:23;35.10;;;13.63;;
44276;SDS011;29973;43.742;1.236;2023-02-22T11:04:12;26.05;;;12.90;;
44276;SDS011;29973;43.742;1.236;2023-02-22T11:06:44;31.23;;;14.95;;
44276;SDS011;29973;43.742;1.236;2023-02-22T11:09:22;32.45;;;14.93;;
44276;SDS011;29973;43.742;1.236;2023-02-22T11:12:09;34.45;;;15.52;;
44276;SDS011;29973;43.742;1.236;2023-02-22T11:14:40;38.35;;;14.85;;
44276;SDS011;29973;43.742;1.236;2023-02-22T11:17:12;34.53;;;15.13;;
44276;SDS011;29973;43.742;1.236;2023-02-22T11:25:17;33.28;;;14.90;;
44276;SDS011;29973;43.742;1.236;2023-02-22T11:27:46;28.05;;;15.25;;
44276;SDS011;29973;43.742;1.236;2023-02-22T11:30:26;33.83;;;14.85;;
44276;SDS011;29973;43.742;1.236;2023-02-22T11:38:21;41.22;;;13.40;;
44276;SDS011;29973;43.742;1.236;2023-02-22T11:41:05;30.42;;;13.68;;
44276;SDS011;29973;43.742;1.236;2023-02-22T11:43:39;28.42;;;13.85;;
44276;SDS011;29973;43.742;1.236;2023-02-22T11:46:10;27.02;;;12.35;;
44276;SDS011;29973;43.742;1.236;2023-02-22T11:48:44;33.25;;;13.25;;
44276;SDS011;29973;43.742;1.236;2023-02-22T11:54:11;32.00;;;11.13;;
44276;SDS011;29973;43.742;1.236;2023-02-22T11:56:52;30.35;;;12.18;;
44276;SDS011;29973;43.742;1.236;2023-02-22T12:12:53;33.05;;;10.43;;
44276;SDS011;29973;43.742;1.236;2023-02-22T12:21:14;21.60;;;10.75;;
44276;SDS011;29973;43.742;1.236;2023-02-22T12:31:51;26.25;;;9.52;;
44276;SDS011;29973;43.742;1.236;2023-02-22T12:37:02;28.65;;;10.15;;
44276;SDS011;29973;43.742;1.236;2023-02-22T12:42:16;38.85;;;15.52;;
44276;SDS011;29973;43.742;1.236;2023-02-22T12:44:46;23.15;;;10.52;;
44276;SDS011;29973;43.742;1.236;2023-02-22T12:47:23;28.20;;;12.77;;
44276;SDS011;29973;43.742;1.236;2023-02-22T12:53:03;34.28;;;12.80;;
44276;SDS011;29973;43.742;1.236;2023-02-22T12:55:51;23.67;;;9.93;;
44276;SDS011;29973;43.742;1.236;2023-02-22T12:58:44;23.23;;;9.82;;
44276;SDS011;29973;43.742;1.236;2023-02-22T13:01:17;23.75;;;11.68;;
44276;SDS011;29973;43.742;1.236;2023-02-22T13:03:52;21.73;;;10.50;;
44276;SDS011;29973;43.742;1.236;2023-02-22T13:11:59;16.70;;;8.65;;
44276;SDS011;29973;43.742;1.236;2023-02-22T13:26:00;25.80;;;9.52;;
44276;SDS011;29973;43.742;1.236;2023-02-22T13:40:15;21.70;;;7.90;;
44276;SDS011;29973;43.742;1.236;2023-02-22T13:48:17;14.65;;;7.60;;
44276;SDS011;29973;43.742;1.236;2023-02-22T13:54:05;18.83;;;8.40;;
44276;SDS011;29973;43.742;1.236;2023-02-22T13:56:46;21.27;;;8.32;;
44276;SDS011;29973;43.742;1.236;2023-02-22T14:02:06;23.48;;;9.65;;
44276;SDS011;29973;43.742;1.236;2023-02-22T14:04:59;16.52;;;6.43;;
44276;SDS011;29973;43.742;1.236;2023-02-22T14:07:47;19.90;;;7.10;;
44276;SDS011;29973;43.742;1.236;2023-02-22T14:13:14;14.63;;;6.65;;
44276;SDS011;29973;43.742;1.236;2023-02-22T14:18:45;20.77;;;6.22;;
44276;SDS011;29973;43.742;1.236;2023-02-22T14:21:16;16.95;;;6.20;;
44276;SDS011;29973;43.742;1.236;2023-02-22T14:23:45;12.05;;;6.47;;
44276;SDS011;29973;43.742;1.236;2023-02-22T14:31:22;9.05;;;5.05;;
44276;SDS011;29973;43.742;1.236;2023-02-22T14:36:20;12.75;;;5.22;;
44276;SDS011;29973;43.742;1.236;2023-02-22T14:38:53;19.25;;;5.13;;
44276;SDS011;29973;43.742;1.236;2023-02-22T14:41:27;12.20;;;5.38;;
44276;SDS011;29973;43.742;1.236;2023-02-22T14:43:55;14.07;;;4.90;;
44276;SDS011;29973;43.742;1.236;2023-02-22T14:46:24;12.18;;;4.70;;
44276;SDS011;29973;43.742;1.236;2023-02-22T14:48:57;13.57;;;5.30;;
44276;SDS011;29973;43.742;1.236;2023-02-22T14:51:28;16.15;;;5.15;;
44276;SDS011;29973;43.742;1.236;2023-02-22T14:57:12;13.50;;;4.85;;
44276;SDS011;29973;43.742;1.236;2023-02-22T15:02:48;16.98;;;5.40;;
44276;SDS011;29973;43.742;1.236;2023-02-22T15:05:21;9.95;;;4.38;;
44276;SDS011;29973;43.742;1.236;2023-02-22T15:07:51;11.50;;;4.63;;
44276;SDS011;29973;43.742;1.236;2023-02-22T15:10:24;18.98;;;6.40;;
44276;SDS011;29973;43.742;1.236;2023-02-22T15:13:04;18.23;;;5.20;;
44276;SDS011;29973;43.742;1.236;2023-02-22T15:15:42;12.57;;;4.20;;
44276;SDS011;29973;43.742;1.236;2023-02-22T15:18:19;13.52;;;4.05;;
44276;SDS011;29973;43.742;1.236;2023-02-22T15:20:52;11.23;;;3.83;;
44276;SDS011;29973;43.742;1.236;2023-02-22T15:23:43;14.75;;;4.20;;
44276;SDS011;29973;43.742;1.236;2023-02-22T15:26:35;11.93;;;3.97;;
44276;SDS011;29973;43.742;1.236;2023-02-22T15:29:22;10.98;;;3.72;;
44276;SDS011;29973;43.742;1.236;2023-02-22T15:32:10;7.05;;;3.85;;
44276;SDS011;29973;43.742;1.236;2023-02-22T15:34:43;11.60;;;3.85;;
44276;SDS011;29973;43.742;1.236;2023-02-22T15:37:19;8.52;;;3.92;;
44276;SDS011;29973;43.742;1.236;2023-02-22T15:39:49;10.32;;;4.25;;
44276;SDS011;29973;43.742;1.236;2023-02-22T15:42:23;11.68;;;3.97;;
44276;SDS011;29973;43.742;1.236;2023-02-22T15:44:50;10.30;;;4.43;;
44276;SDS011;29973;43.742;1.236;2023-02-22T15:47:28;11.18;;;4.85;;
44276;SDS011;29973;43.742;1.236;2023-02-22T15:52:49;14.00;;;4.72;;
44276;SDS011;29973;43.742;1.236;2023-02-22T15:55:28;11.57;;;4.35;;
44276;SDS011;29973;43.742;1.236;2023-02-22T15:57:58;16.67;;;5.82;;
44276;SDS011;29973;43.742;1.236;2023-02-22T16:00:38;11.25;;;4.85;;
44276;SDS011;29973;43.742;1.236;2023-02-22T16:03:09;16.25;;;5.75;;
44276;SDS011;29973;43.742;1.236;2023-02-22T16:05:45;14.95;;;5.88;;
44276;SDS011;29973;43.742;1.236;2023-02-22T16:08:21;20.27;;;6.65;;
44276;SDS011;29973;43.742;1.236;2023-02-22T16:13:37;19.25;;;7.13;;
44276;SDS011;29973;43.742;1.236;2023-02-22T16:16:21;17.58;;;6.78;;
44276;SDS011;29973;43.742;1.236;2023-02-22T16:18:51;17.25;;;6.38;;
44276;SDS011;29973;43.742;1.236;2023-02-22T16:27:46;19.25;;;6.53;;
44276;SDS011;29973;43.742;1.236;2023-02-22T16:33:23;16.65;;;6.95;;
44276;SDS011;29973;43.742;1.236;2023-02-22T16:35:54;14.50;;;6.60;;
44276;SDS011;29973;43.742;1.236;2023-02-22T16:38:40;16.83;;;7.50;;
44276;SDS011;29973;43.742;1.236;2023-02-22T16:41:11;22.13;;;8.38;;
44276;SDS011;29973;43.742;1.236;2023-02-22T16:43:39;30.60;;;7.85;;
44276;SDS011;29973;43.742;1.236;2023-02-22T16:46:15;23.00;;;8.48;;
44276;SDS011;29973;43.742;1.236;2023-02-22T16:49:02;19.70;;;8.10;;
44276;SDS011;29973;43.742;1.236;2023-02-22T16:51:38;26.08;;;8.40;;
44276;SDS011;29973;43.742;1.236;2023-02-22T16:54:24;21.65;;;9.05;;
44276;SDS011;29973;43.742;1.236;2023-02-22T16:56:57;27.73;;;10.52;;
44276;SDS011;29973;43.742;1.236;2023-02-22T16:59:35;25.25;;;10.43;;
44276;SDS011;29973;43.742;1.236;2023-02-22T17:02:19;21.52;;;8.82;;
44276;SDS011;29973;43.742;1.236;2023-02-22T17:05:28;20.05;;;8.40;;
44276;SDS011;29973;43.742;1.236;2023-02-22T17:07:55;25.05;;;9.05;;
44276;SDS011;29973;43.742;1.236;2023-02-22T17:10:24;21.80;;;10.10;;
44276;SDS011;29973;43.742;1.236;2023-02-22T17:13:07;20.60;;;8.20;;
44276;SDS011;29973;43.742;1.236;2023-02-22T17:15:50;18.88;;;7.95;;
44276;SDS011;29973;43.742;1.236;2023-02-22T17:18:34;22.35;;;7.95;;
44276;SDS011;29973;43.742;1.236;2023-02-22T17:21:27;24.40;;;8.25;;
44276;SDS011;29973;43.742;1.236;2023-02-22T17:23:58;22.67;;;7.75;;
44276;SDS011;29973;43.742;1.236;2023-02-22T17:26:31;19.65;;;9.13;;
44276;SDS011;29973;43.742;1.236;2023-02-22T17:29:10;22.65;;;9.50;;
44276;SDS011;29973;43.742;1.236;2023-02-22T17:31:57;20.05;;;9.73;;
44276;SDS011;29973;43.742;1.236;2023-02-22T17:34:41;23.60;;;9.27;;
44276;SDS011;29973;43.742;1.236;2023-02-22T17:51:41;24.67;;;11.38;;
44276;SDS011;29973;43.742;1.236;2023-02-22T17:54:13;38.80;;;15.45;;
44276;SDS011;29973;43.742;1.236;2023-02-22T17:56:42;32.55;;;14.82;;
44276;SDS011;29973;43.742;1.236;2023-02-22T17:59:08;24.75;;;13.18;;
44276;SDS011;29973;43.742;1.236;2023-02-22T18:01:39;43.45;;;16.15;;
44276;SDS011;29973;43.742;1.236;2023-02-22T18:04:30;35.95;;;15.30;;
44276;SDS011;29973;43.742;1.236;2023-02-22T18:07:09;48.67;;;21.25;;
44276;SDS011;29973;43.742;1.236;2023-02-22T18:09:42;43.35;;;22.35;;
44276;SDS011;29973;43.742;1.236;2023-02-22T18:12:18;53.28;;;26.40;;
44276;SDS011;29973;43.742;1.236;2023-02-22T18:14:53;43.05;;;19.45;;
44276;SDS011;29973;43.742;1.236;2023-02-22T18:17:31;35.88;;;15.25;;
44276;SDS011;29973;43.742;1.236;2023-02-22T18:20:18;28.35;;;14.05;;